Time;durP1;ratioP1;P1;durP2;ratioP2;P2;SDS_P1;SDS_P2;PMS_P1;PMS_P2;Temp;Humidity;BMP_temperature;BMP_pressure;BME280_temperature;BME280_humidity;BME280_pressure;Samples;Min_cycle;Max_cycle;Signal;HPM_P1;HPM_P2
2023/05/16 00:00:51;;;;;;;3.03;2.83;;;;;;;20.58;58.62;97049.03;4993373;28;20207;-32
2023/05/16 00:03:18;;;;;;;3.10;2.90;;;;;;;20.57;58.62;97045.59;4976827;28;20227;-32
2023/05/16 00:05:45;;;;;;;3.07;2.87;;;;;;;20.57;58.64;97045.59;4974766;28;20208;-31
2023/05/16 00:08:12;;;;;;;2.87;2.67;;;;;;;20.58;58.81;97043.94;4976571;28;20210;-31
2023/05/16 00:10:38;;;;;;;3.00;2.80;;;;;;;20.56;59.02;97043.91;4977097;28;20700;-31
2023/05/16 00:13:06;;;;;;;3.00;2.80;;;;;;;20.55;58.91;97047.28;4976330;28;20266;-31
2023/05/16 00:15:32;;;;;;;2.97;2.77;;;;;;;20.57;58.79;97052.44;4976908;28;20210;-32
2023/05/16 00:17:59;;;;;;;3.17;2.97;;;;;;;20.56;58.30;97051.56;4976617;28;20210;-29
2023/05/16 00:20:26;;;;;;;3.00;2.80;;;;;;;20.55;58.72;97042.19;4977033;28;20303;-32
2023/05/16 00:22:54;;;;;;;4.03;2.77;;;;;;;20.57;59.12;97040.50;4972557;28;20255;-32
2023/05/16 00:25:21;;;;;;;3.00;2.80;;;;;;;20.55;58.86;97039.63;4976482;28;20682;-32
2023/05/16 00:27:48;;;;;;;3.40;3.10;;;;;;;20.57;58.74;97040.50;4980685;28;20204;-32
2023/05/16 00:30:14;;;;;;;2.80;2.60;;;;;;;20.57;58.73;97039.66;4975539;28;20211;-32
2023/05/16 00:32:42;;;;;;;3.00;2.80;;;;;;;20.57;58.74;97037.94;4976423;28;20219;-31
2023/05/16 00:35:10;;;;;;;3.20;3.00;;;;;;;20.53;58.70;97032.72;4968571;28;20640;-31
2023/05/16 00:37:37;;;;;;;2.90;2.70;;;;;;;20.57;58.85;97039.66;4972598;28;20203;-31
2023/05/16 00:40:04;;;;;;;3.20;3.00;;;;;;;20.56;58.70;97041.34;4976536;28;20215;-32
2023/05/16 00:42:31;;;;;;;3.00;2.80;;;;;;;20.55;58.65;97042.19;4976389;28;20223;-32
2023/05/16 00:44:58;;;;;;;3.13;2.93;;;;;;;20.55;58.56;97041.31;4976413;28;20291;-32
2023/05/16 00:47:25;;;;;;;3.20;3.00;;;;;;;20.54;58.83;97037.88;4975979;28;20247;-32
2023/05/16 00:49:52;;;;;;;2.97;2.70;;;;;;;20.54;58.91;97037.88;4974818;28;20196;-32
2023/05/16 00:52:18;;;;;;;3.23;3.00;;;;;;;20.49;58.79;97031.78;4968596;28;20630;-31
2023/05/16 00:54:45;;;;;;;3.23;3.03;;;;;;;20.54;58.77;97037.88;4976219;28;20220;-32
2023/05/16 00:57:12;;;;;;;3.00;2.80;;;;;;;20.56;58.59;97043.00;4975999;28;20299;-32
2023/05/16 00:59:39;;;;;;;2.80;2.60;;;;;;;20.55;58.72;97033.66;4991048;28;20242;-32
2023/05/16 01:02:05;;;;;;;3.00;2.80;;;;;;;20.55;58.73;97037.06;4972940;28;20227;-31
2023/05/16 01:04:32;;;;;;;3.10;2.90;;;;;;;20.51;58.57;97032.69;4969251;28;20200;-32
2023/05/16 01:06:58;;;;;;;3.30;3.00;;;;;;;20.54;58.59;97039.59;4974712;28;20291;-32
2023/05/16 01:09:25;;;;;;;2.87;2.67;;;;;;;20.55;58.58;97038.75;4974589;28;20203;-32
2023/05/16 01:12:13;;;;;;;3.30;3.00;;;;;;;20.52;58.32;97047.16;4974694;28;20220;-30
2023/05/16 01:15:01;;;;;;;3.17;2.97;;;;;;;20.54;58.70;97035.31;4959432;28;20251;-32
2023/05/16 01:17:35;;;;;;;3.00;2.80;;;;;;;20.54;58.50;97025.09;4967865;28;20300;-32
2023/05/16 01:20:05;;;;;;;2.97;2.77;;;;;;;20.27;58.71;96987.81;4990930;28;20636;-32
2023/05/16 01:22:44;;;;;;;3.10;2.90;;;;;;;20.54;58.53;97025.09;4975700;28;20223;-32
2023/05/16 01:25:30;;;;;;;3.10;2.90;;;;;;;20.54;58.67;97026.81;4990505;28;20663;-33
2023/05/16 01:27:56;;;;;;;3.10;2.87;;;;;;;20.54;58.83;97029.38;4971693;28;20223;-31
2023/05/16 01:30:24;;;;;;;3.00;2.80;;;;;;;20.53;58.79;97025.06;4991157;28;20200;-32
2023/05/16 01:32:50;;;;;;;2.93;2.73;;;;;;;20.53;58.63;97028.50;4976341;28;20666;-31
2023/05/16 01:35:17;;;;;;;3.17;2.97;;;;;;;20.52;59.17;97026.75;4974178;28;20251;-32
2023/05/16 01:38:05;;;;;;;3.43;3.10;;;;;;;20.53;58.53;97025.94;4968450;28;20208;-32
2023/05/16 01:41:24;;;;;;;2.90;2.70;;;;;;;20.53;58.65;97023.41;4961496;28;20577;-31
2023/05/16 01:43:51;;;;;;;3.27;3.00;;;;;;;20.53;58.65;97028.50;4956837;28;20575;-32
2023/05/16 01:46:25;;;;;;;3.03;2.77;;;;;;;20.52;58.78;97025.91;4973996;28;20200;-32
2023/05/16 01:49:16;;;;;;;3.10;2.90;;;;;;;20.53;58.60;97025.06;4971597;28;20219;-32
2023/05/16 01:51:44;;;;;;;3.50;3.20;;;;;;;20.47;58.57;97014.72;4968869;28;20231;-32
2023/05/16 01:54:12;;;;;;;3.10;2.90;;;;;;;20.48;58.46;97019.84;4973745;28;20258;-32
2023/05/16 01:56:39;;;;;;;2.90;2.70;;;;;;;20.52;59.05;97013.16;4972354;28;20196;-32
2023/05/16 01:59:05;;;;;;;2.90;2.70;;;;;;;20.52;58.68;97013.97;4973472;28;20199;-29
2023/05/16 02:01:32;;;;;;;3.10;2.90;;;;;;;20.53;58.60;97012.31;4973690;28;20270;-32
2023/05/16 02:03:59;;;;;;;3.30;3.10;;;;;;;20.52;58.59;97019.09;4985557;28;20200;-33
2023/05/16 02:06:26;;;;;;;3.23;2.93;;;;;;;20.53;58.59;97014.84;4973740;28;20282;-31
2023/05/16 02:08:52;;;;;;;3.37;3.07;;;;;;;20.53;59.04;97022.53;4972424;28;20234;-32
2023/05/16 02:11:19;;;;;;;4.00;3.00;;;;;;;20.38;58.57;96987.28;4974345;28;20590;-31
2023/05/16 02:13:45;;;;;;;3.10;2.90;;;;;;;20.52;58.87;97013.97;4974787;28;20571;-32
2023/05/16 02:16:12;;;;;;;3.40;3.20;;;;;;;20.52;58.58;97011.44;4974694;28;20199;-31
2023/05/16 02:18:39;;;;;;;3.20;2.90;;;;;;;20.53;58.74;97014.84;4974438;28;20195;-31
2023/05/16 02:21:05;;;;;;;3.10;2.90;;;;;;;20.52;58.75;97015.69;4974397;28;20199;-30
2023/05/16 02:23:32;;;;;;;2.93;2.73;;;;;;;20.51;58.88;97012.28;4973211;28;20204;-33
2023/05/16 02:25:59;;;;;;;3.23;2.93;;;;;;;20.50;58.16;97010.56;4972781;28;20704;-30
2023/05/16 02:28:25;;;;;;;3.20;3.00;;;;;;;20.50;58.79;97010.56;4974534;28;20208;-32
2023/05/16 02:30:58;;;;;;;3.27;2.97;;;;;;;20.50;58.63;97010.56;4974331;28;20206;-31
2023/05/16 02:33:26;;;;;;;3.27;3.07;;;;;;;20.51;58.87;97014.81;4973181;28;20203;-30
2023/05/16 02:35:53;;;;;;;2.80;2.60;;;;;;;20.52;58.73;97005.47;4973945;28;20215;-32
2023/05/16 02:38:20;;;;;;;3.33;3.03;;;;;;;20.52;58.71;97005.47;4974281;28;20203;-31
2023/05/16 02:40:47;;;;;;;3.00;2.80;;;;;;;20.51;58.89;97011.41;4974698;28;20674;-32
2023/05/16 02:43:13;;;;;;;3.10;2.90;;;;;;;20.49;58.67;97008.81;4974100;28;20226;-30
2023/05/16 02:45:40;;;;;;;3.40;3.10;;;;;;;20.52;59.07;97016.53;4974362;28;20597;-32
2023/05/16 02:48:08;;;;;;;3.07;2.87;;;;;;;20.49;58.66;97005.41;4971003;28;20203;-30
2023/05/16 02:50:34;;;;;;;3.23;3.03;;;;;;;20.39;58.27;96991.53;4974511;28;20701;-32
2023/05/16 02:53:01;;;;;;;3.60;3.30;;;;;;;20.51;58.99;97004.63;4973512;28;20227;-32
2023/05/16 02:55:28;;;;;;;2.80;2.60;;;;;;;20.51;58.76;97011.41;4973947;28;20262;-32
2023/05/16 02:57:54;;;;;;;3.10;2.90;;;;;;;20.52;58.90;97015.69;4970140;28;20206;-32
2023/05/16 03:00:21;;;;;;;2.90;2.63;;;;;;;20.51;58.60;97014.81;4971653;28;20207;-32
2023/05/16 03:02:47;;;;;;;3.30;3.10;;;;;;;20.48;58.51;97006.22;4973329;28;20662;-32
2023/05/16 03:05:15;;;;;;;3.30;3.10;;;;;;;20.51;58.60;97022.47;4974450;28;20207;-32
2023/05/16 03:07:41;;;;;;;3.10;2.90;;;;;;;20.51;58.72;97017.38;4973983;28;20561;-31
2023/05/16 03:10:08;;;;;;;3.07;2.87;;;;;;;20.51;58.65;97019.94;4974397;28;20693;-31
2023/05/16 03:12:35;;;;;;;3.00;2.80;;;;;;;20.52;58.87;97020.81;4972516;28;20273;-31
2023/05/16 03:15:02;;;;;;;3.13;2.90;;;;;;;20.50;58.75;97017.34;4973794;28;20215;-32
2023/05/16 03:17:29;;;;;;;3.00;2.80;;;;;;;20.51;58.76;97024.16;4972777;28;20324;-31
2023/05/16 03:19:56;;;;;;;4.13;3.00;;;;;;;20.50;58.53;97023.31;4969275;28;20210;-32
2023/05/16 03:22:22;;;;;;;3.20;3.00;;;;;;;20.51;58.57;97029.25;4971247;28;20216;-33
2023/05/16 03:24:49;;;;;;;3.43;3.20;;;;;;;20.51;58.46;97029.25;4974667;28;20679;-32
2023/05/16 03:27:16;;;;;;;3.50;2.90;;;;;;;20.51;58.70;97030.13;4968185;28;20204;-31
2023/05/16 03:29:42;;;;;;;3.17;2.97;;;;;;;20.49;58.70;97026.66;4974322;28;20200;-32
2023/05/16 03:32:09;;;;;;;3.10;2.90;;;;;;;20.50;58.63;97025.88;4972741;28;20254;-31
2023/05/16 03:34:36;;;;;;;3.20;3.00;;;;;;;20.49;58.67;97031.78;4966136;28;20220;-33
2023/05/16 03:37:03;;;;;;;2.97;2.77;;;;;;;20.49;58.81;97034.31;4976006;28;20297;-31
2023/05/16 03:39:30;;;;;;;2.83;2.63;;;;;;;20.48;58.71;97032.63;4977991;28;20278;-33
2023/05/16 03:41:56;;;;;;;3.27;3.00;;;;;;;20.45;58.73;97035.09;4976627;28;20661;-32
2023/05/16 03:44:23;;;;;;;3.03;2.83;;;;;;;20.46;58.78;97031.69;4977563;28;20223;-32
2023/05/16 03:46:50;;;;;;;3.10;2.90;;;;;;;20.49;58.59;97036.03;4976449;28;20682;-32
2023/05/16 03:49:17;;;;;;;2.93;2.73;;;;;;;20.49;58.40;97038.59;4977710;28;20261;-30
2023/05/16 03:51:43;;;;;;;3.10;2.90;;;;;;;20.48;58.65;97034.28;4977758;28;20228;-32
2023/05/16 03:54:10;;;;;;;3.00;2.80;;;;;;;20.51;58.59;97040.34;4977296;28;20230;-32
2023/05/16 03:56:37;;;;;;;3.07;2.87;;;;;;;20.51;59.03;97037.78;4976108;28;20254;-31
2023/05/16 03:59:03;;;;;;;3.17;2.87;;;;;;;20.52;58.87;97036.13;4977310;28;20576;-32
2023/05/16 04:01:30;;;;;;;3.33;3.13;;;;;;;20.51;58.56;97034.38;4972911;28;20302;-32
2023/05/16 04:03:56;;;;;;;3.30;3.10;;;;;;;20.53;58.58;97033.59;4992292;28;20590;-32
2023/05/16 04:06:23;;;;;;;3.17;2.97;;;;;;;20.53;58.44;97041.25;4976644;28;20231;-33
2023/05/16 04:08:49;;;;;;;3.50;3.20;;;;;;;20.53;58.72;97045.50;4977066;28;20208;-30
2023/05/16 04:11:16;;;;;;;3.20;2.90;;;;;;;20.50;58.78;97045.41;4975324;28;20298;-32
2023/05/16 04:13:42;;;;;;;3.40;3.10;;;;;;;20.53;58.53;97045.50;4969211;28;20208;-33
2023/05/16 04:16:09;;;;;;;3.20;3.00;;;;;;;20.53;58.46;97048.03;4973533;28;20227;-32
2023/05/16 04:18:36;;;;;;;3.00;2.80;;;;;;;20.52;58.13;97052.28;4974204;28;20742;-31
2023/05/16 04:21:02;;;;;;;3.47;3.17;;;;;;;20.53;58.29;97045.50;4976907;28;20250;-31
2023/05/16 04:23:29;;;;;;;3.47;3.20;;;;;;;20.54;58.23;97053.19;4970004;28;20262;-32
2023/05/16 04:25:56;;;;;;;3.33;3.07;;;;;;;20.54;58.31;97053.19;4970842;28;20517;-31
2023/05/16 04:28:22;;;;;;;6.77;3.40;;;;;;;20.53;58.31;97056.56;4972959;28;20212;-32
2023/05/16 04:30:49;;;;;;;3.80;3.50;;;;;;;20.53;58.72;97050.59;4976258;28;20238;-32
2023/05/16 04:33:16;;;;;;;3.70;3.40;;;;;;;20.53;58.35;97051.47;4973058;28;20258;-31
2023/05/16 04:35:42;;;;;;;3.60;3.30;;;;;;;20.54;58.33;97053.19;4975984;28;20307;-31
2023/05/16 04:38:09;;;;;;;3.60;3.30;;;;;;;20.54;58.29;97045.53;4966423;28;20215;-31
2023/05/16 04:40:36;;;;;;;4.10;3.80;;;;;;;20.55;58.39;97038.75;4975504;28;20206;-33
2023/05/16 04:43:03;;;;;;;3.30;3.10;;;;;;;20.55;58.65;97048.97;4969738;28;20228;-32
2023/05/16 04:45:29;;;;;;;3.83;3.53;;;;;;;20.56;58.38;97043.00;4974402;28;20204;-30
2023/05/16 04:47:56;;;;;;;4.07;3.77;;;;;;;20.56;57.99;97040.47;4973058;28;20207;-32
2023/05/16 04:50:23;;;;;;;3.60;3.30;;;;;;;20.54;58.52;97035.31;4975441;28;20208;-31
2023/05/16 04:52:49;;;;;;;3.67;3.33;;;;;;;20.54;58.46;97032.78;4972498;28;20318;-31
2023/05/16 04:55:16;;;;;;;3.73;3.43;;;;;;;20.56;58.26;97035.34;4975272;28;20235;-32
2023/05/16 05:10:58;;;;;;;3.37;3.10;;;;;;;20.36;59.17;97047.59;4948003;28;20654;-30
2023/05/16 05:13:25;;;;;;;5.65;3.20;;;;;;;19.29;60.15;96857.66;5040618;22;20445;-92
2023/05/16 05:15:52;;;;;;;4.70;3.20;;;;;;;19.92;58.96;96949.47;4954298;28;20216;-91
2023/05/16 05:18:18;;;;;;;3.60;3.03;;;;;;;19.65;58.42;96907.06;4943560;28;20181;-92
2023/05/16 05:20:45;;;;;;;3.37;3.07;;;;;;;19.73;58.55;96926.00;4960726;28;20185;-92
2023/05/16 05:23:12;;;;;;;3.37;3.07;;;;;;;19.76;58.39;96921.84;4944546;28;20193;-91
2023/05/16 05:25:39;;;;;;;3.50;3.30;;;;;;;19.90;58.46;96952.81;4944741;28;20204;-91
2023/05/16 05:28:06;;;;;;;3.20;2.90;;;;;;;20.19;58.08;97015.69;4945088;28;20197;-92
2023/05/16 05:30:33;;;;;;;3.63;3.17;;;;;;;19.39;58.21;96872.41;4960635;28;20183;-92
2023/05/16 05:32:59;;;;;;;5.07;3.10;;;;;;;19.28;58.55;96856.81;4944870;28;20199;-92
2023/05/16 05:35:26;;;;;;;6.40;3.87;;;;;;;19.59;58.75;96906.91;4936277;28;20209;-91
2023/05/16 05:37:54;;;;;;;3.60;3.30;;;;;;;18.95;58.67;96798.94;4974064;23;20217;-91
2023/05/16 05:40:21;;;;;;;3.77;3.47;;;;;;;19.54;58.58;96905.94;4927005;29;20191;-92
2023/05/16 05:42:48;;;;;;;3.80;3.33;;;;;;;19.51;58.72;96921.16;4907117;29;20189;-91
2023/05/16 05:45:15;;;;;;;3.53;3.00;;;;;;;20.05;59.02;97003.34;4936810;29;20194;-92
2023/05/16 05:47:50;;;;;;;3.40;3.20;;;;;;;20.31;58.97;97038.13;4934496;28;20190;-90
2023/05/16 05:50:17;;;;;;;3.90;3.60;;;;;;;19.35;58.79;96885.84;4924677;28;20232;-91
2023/05/16 05:52:44;;;;;;;4.00;3.57;;;;;;;19.37;58.77;96912.25;4924008;28;20192;-91
2023/05/16 05:55:11;;;;;;;4.40;3.70;;;;;;;19.12;58.99;96859.72;4934023;28;20241;-91
2023/05/16 05:57:38;;;;;;;3.83;3.53;;;;;;;19.39;58.76;96902.97;4944923;28;20182;-91
2023/05/16 06:00:05;;;;;;;4.40;3.60;;;;;;;19.16;58.41;96865.75;4940031;28;20198;-92
2023/05/16 06:02:33;;;;;;;4.80;4.07;;;;;;;19.69;58.94;96960.72;4939533;28;20261;-91
2023/05/16 06:05:00;;;;;;;4.37;4.00;;;;;;;19.30;58.84;96895.06;4937353;28;20222;-92
2023/05/16 06:07:27;;;;;;;4.97;4.20;;;;;;;19.37;59.09;96914.78;4939575;28;20230;-91
2023/05/16 06:09:53;;;;;;;6.63;4.60;;;;;;;18.66;57.70;96784.53;4924325;28;20194;-92
2023/05/16 06:12:20;;;;;;;5.23;4.50;;;;;;;19.36;57.63;96910.53;4926419;28;20173;-92
2023/05/16 06:14:46;;;;;;;7.10;4.60;;;;;;;19.07;58.02;96875.69;4930904;28;20226;-91
2023/05/16 06:17:13;;;;;;;6.67;5.00;;;;;;;19.75;58.14;96988.09;4934010;28;20213;-92
2023/05/16 06:19:40;;;;;;;6.17;5.37;;;;;;;19.39;58.31;96925.91;4940286;28;20194;-92
2023/05/16 06:22:07;;;;;;;5.30;4.80;;;;;;;19.13;58.45;96874.16;4940052;28;20177;-93
2023/05/16 06:24:36;;;;;;;5.30;4.80;;;;;;;18.70;58.37;96817.75;4940292;28;20221;-92
2023/05/16 06:27:03;;;;;;;5.47;4.97;;;;;;;18.98;58.42;96857.59;4921271;28;20217;-93
2023/05/16 06:29:31;;;;;;;5.90;4.77;;;;;;;19.03;58.47;96873.84;4931995;28;20182;-93
2023/05/16 06:31:58;;;;;;;6.00;4.83;;;;;;;18.89;58.58;96842.91;4949033;28;20193;-93
2023/05/16 06:34:27;;;;;;;5.90;5.00;;;;;;;19.38;58.79;96929.25;4931291;28;20797;-92
2023/05/16 06:36:54;;;;;;;5.80;4.60;;;;;;;19.87;58.71;97012.22;4921822;28;20273;-92
2023/05/16 06:39:21;;;;;;;5.40;4.90;;;;;;;19.28;58.67;96915.41;4940257;28;20186;-92
2023/05/16 06:41:48;;;;;;;5.27;4.70;;;;;;;18.88;58.80;96843.72;4935837;28;20182;-94
2023/05/16 06:44:19;;;;;;;4.80;4.40;;;;;;;19.19;58.76;96898.97;4937554;28;20193;-93
2023/05/16 06:46:53;;;;;;;5.30;4.83;;;;;;;18.69;58.78;96817.69;4937988;28;20182;-93
2023/05/16 06:49:20;;;;;;;5.40;4.90;;;;;;;20.17;58.53;97059.84;4937742;28;20182;-93
2023/05/16 06:51:47;;;;;;;6.27;4.93;;;;;;;18.96;58.71;96855.00;4938117;28;20205;-93
2023/05/16 06:54:13;;;;;;;5.00;4.53;;;;;;;19.24;58.89;96903.34;4920487;28;20198;-93
2023/05/16 06:56:40;;;;;;;5.23;4.73;;;;;;;19.05;59.14;96882.41;4936320;28;20218;-93
2023/05/16 06:59:08;;;;;;;4.50;4.10;;;;;;;18.72;58.89;96825.44;4933984;28;20190;-93
2023/05/16 07:01:35;;;;;;;4.90;4.50;;;;;;;19.21;58.91;96907.47;4933204;28;20182;-93
2023/05/16 07:04:02;;;;;;;5.30;4.80;;;;;;;18.84;58.91;96849.56;4921830;28;20277;-93
2023/05/16 07:06:30;;;;;;;8.13;4.80;;;;;;;19.85;59.00;97011.34;4937773;28;20371;-93
2023/05/16 07:08:57;;;;;;;5.23;4.73;;;;;;;19.28;58.85;96910.31;4937797;28;20197;-93
2023/05/16 07:11:24;;;;;;;5.20;4.70;;;;;;;19.82;58.68;97001.06;4938393;28;20182;-93
2023/05/16 07:13:51;;;;;;;4.93;4.53;;;;;;;19.30;58.86;96916.28;4941160;28;20196;-94
2023/05/16 07:16:18;;;;;;;4.67;4.23;;;;;;;19.02;58.87;96873.00;4926334;28;20205;-92
2023/05/16 07:18:45;;;;;;;4.83;4.40;;;;;;;19.04;58.97;96886.63;4937501;28;20201;-93
2023/05/16 07:21:12;;;;;;;4.67;4.27;;;;;;;19.07;58.71;96891.81;4938834;28;20369;-93
2023/05/16 07:23:40;;;;;;;5.30;4.80;;;;;;;19.22;58.82;96907.53;4959066;28;20178;-93
2023/05/16 07:26:07;;;;;;;4.97;4.53;;;;;;;19.11;58.89;96896.19;4925406;28;20237;-93
2023/05/16 07:28:34;;;;;;;4.87;4.37;;;;;;;18.90;58.68;96859.06;4925843;28;20261;-93
